CheckWX is a tool to help pilots better visualize weather data.  It is not intended as a substitute for an official pre-flight weather briefing.

02:08:00 UTC

KMHS METAR
Mount Shasta Airport
Mount Shasta, California, USA
Current

12 mins ago

KMHS 180156Z AUTO 33008G16KT 290V350 9SM SCT016 M01/M06 A3000 RMK AO2 SLP200 T10111061
Observed
Feb-18 @ 01:56 UTC
Wind
  • 330° at 8 KTS
  • Gusting to 16 KTS
Visibility
9 SM
Flight Rules
VFR
Cloud Levels
  • Scattered at 1,600' AGL
Temperature
-1°C / 30°F
Dewpoint
-6°C / 21°F
Humidity
69%
Altimeter
30" Hg
Pressure
1020 hPa
Previous

1 hour ago

KMHS 180056Z AUTO 32007KT 300V040 10SM CLR M01/M06 A2997 RMK AO2 SLP192 T10111061
Observed
Feb-18 @ 00:56 UTC
Wind
  • 320° at 7 KTS
Visibility
10 SM
Flight Rules
VFR
Cloud Levels
  • Clear skies
Temperature
-1°C / 30°F
Dewpoint
-6°C / 21°F
Humidity
69%
Altimeter
29.97" Hg
Pressure
1019.2 hPa
Previous

2 hours ago

KMHS 180008Z AUTO VRB06KT 10SM SCT026 M01/M07 A2997 RMK AO2 T10061072
Observed
Feb-18 @ 00:08 UTC
Wind
  • Variable at 6 KTS
Visibility
10 SM
Flight Rules
VFR
Cloud Levels
  • Scattered at 2,600' AGL
Temperature
-1°C / 30°F
Dewpoint
-7°C / 19°F
Humidity
64%
Altimeter
29.97" Hg
Pressure
1014.92 hPa